createdAt,value
2022-12-01T00:03:38.113Z,-1.97
2022-12-01T00:09:01.787Z,-1.85
2022-12-01T00:14:04.359Z,-1.82
2022-12-01T00:19:06.301Z,-1.78
2022-12-01T00:24:11.188Z,-2.23
2022-12-01T00:29:13.080Z,-1.81
2022-12-01T00:34:22.600Z,-1.88
2022-12-01T00:39:25.875Z,-1.82
2022-12-01T00:44:27.875Z,-1.94
2022-12-01T00:49:29.863Z,-1.99
2022-12-01T00:54:33.346Z,-2.04
2022-12-01T00:59:38.466Z,-2.02
2022-12-01T01:04:40.389Z,-2.10
2022-12-01T01:09:43.652Z,-2.07
2022-12-01T01:14:45.576Z,-2.20
2022-12-01T01:19:48.037Z,-2.07
2022-12-01T01:24:51.514Z,-2.12
2022-12-01T01:29:53.417Z,-2.35
2022-12-01T01:34:55.427Z,-2.24
2022-12-01T01:39:58.713Z,-2.15
2022-12-01T01:45:00.712Z,-2.25
2022-12-01T01:50:09.065Z,-2.21
2022-12-01T01:55:14.011Z,-2.11
2022-12-01T02:00:18.228Z,-2.32
2022-12-01T02:05:23.325Z,-2.11
2022-12-01T02:10:38.850Z,-2.12
2022-12-01T02:15:47.912Z,-2.32
2022-12-01T02:21:28.152Z,-2.19
2022-12-01T02:26:44.673Z,-2.18
2022-12-01T02:31:55.744Z,-2.16
2022-12-01T02:37:05.233Z,-2.24
2022-12-01T02:42:34.345Z,-2.27
2022-12-01T02:47:41.189Z,-2.27
2022-12-01T02:52:43.159Z,-2.25
2022-12-01T02:57:45.051Z,-2.17
2022-12-01T03:03:01.659Z,-2.46
2022-12-01T03:08:19.594Z,-2.41
2022-12-01T03:13:30.506Z,-2.56
2022-12-01T03:18:38.446Z,-2.64
2022-12-01T03:23:44.206Z,-2.65
2022-12-01T03:28:50.071Z,-2.81
2022-12-01T03:33:58.920Z,-2.73
2022-12-01T03:39:06.674Z,-2.67
2022-12-01T03:44:12.133Z,-2.60
2022-12-01T03:49:18.132Z,-2.47
2022-12-01T03:54:26.285Z,-2.42
2022-12-01T03:59:29.385Z,-2.30
2022-12-01T04:04:32.651Z,-2.32
2022-12-01T04:09:34.626Z,-2.49
2022-12-01T04:14:36.545Z,-2.46
2022-12-01T04:19:39.794Z,-2.40
2022-12-01T04:24:42.072Z,-2.26
2022-12-01T04:29:44.173Z,-2.48
2022-12-01T04:34:47.445Z,-2.39
2022-12-01T04:39:49.765Z,-2.50
2022-12-01T04:44:51.781Z,-2.47
2022-12-01T04:49:55.086Z,-2.41
2022-12-01T04:54:56.965Z,-2.50
2022-12-01T04:59:58.837Z,-2.20
2022-12-01T05:05:02.089Z,-2.09
2022-12-01T05:10:05.059Z,-2.10
2022-12-01T05:15:08.028Z,-2.02
2022-12-01T05:20:36.550Z,-2.12
2022-12-01T05:25:38.581Z,-2.06
2022-12-01T05:30:40.862Z,-2.09
2022-12-01T05:35:44.477Z,-2.05
2022-12-01T05:40:50.288Z,-2.05
2022-12-01T05:45:52.296Z,-2.12
2022-12-01T05:50:55.671Z,-2.09
2022-12-01T05:55:57.557Z,-1.77
2022-12-01T06:01:00.036Z,-1.65
2022-12-01T06:06:03.623Z,-1.87
2022-12-01T06:11:06.056Z,-1.71
2022-12-01T06:16:08.366Z,-1.72
2022-12-01T06:21:11.642Z,-1.74
2022-12-01T06:26:13.589Z,-1.69
2022-12-01T06:31:15.515Z,-1.61
2022-12-01T06:36:19.161Z,-1.59
2022-12-01T06:41:21.084Z,-1.46
2022-12-01T06:46:23.138Z,-1.56
2022-12-01T06:51:27.016Z,-1.53
2022-12-01T06:56:28.958Z,-1.41
2022-12-01T07:01:31.107Z,-1.36
2022-12-01T07:06:34.405Z,-1.30
2022-12-01T07:11:36.942Z,-1.35
2022-12-01T07:16:38.956Z,-1.38
2022-12-01T07:21:42.284Z,-1.28
2022-12-01T07:26:44.256Z,-1.16
2022-12-01T07:31:46.503Z,-1.17
2022-12-01T07:36:49.792Z,-1.17
2022-12-01T07:41:51.699Z,-1.11
2022-12-01T07:46:54.264Z,-1.11
2022-12-01T07:51:57.574Z,-0.96
2022-12-01T07:56:59.516Z,-0.82
2022-12-01T08:02:01.527Z,-0.76
2022-12-01T08:07:04.869Z,-0.66
2022-12-01T08:12:07.657Z,-0.53
2022-12-01T08:17:09.601Z,-0.62
2022-12-01T08:22:12.850Z,-0.25
2022-12-01T08:27:14.812Z,-0.30
2022-12-01T08:32:17.223Z,-0.46
2022-12-01T08:37:20.493Z,-0.46
2022-12-01T08:42:22.458Z,-0.24
2022-12-01T08:47:24.434Z,-0.32
2022-12-01T08:52:31.430Z,-0.14
2022-12-01T08:57:33.688Z,-0.33
2022-12-01T09:02:35.788Z,-0.16
2022-12-01T09:07:39.358Z,-0.10
2022-12-01T09:12:41.437Z,-0.30
2022-12-01T09:17:43.386Z,-0.08
2022-12-01T09:22:46.671Z,0.10
2022-12-01T09:27:48.587Z,-0.05
2022-12-01T09:32:50.522Z,0.26
2022-12-01T09:37:53.793Z,0.20
2022-12-01T09:42:56.277Z,0.29
2022-12-01T09:48:01.015Z,0.50
2022-12-01T09:53:08.652Z,0.20
2022-12-01T09:58:18.451Z,0.56
2022-12-01T10:03:30.818Z,0.71
2022-12-01T10:08:38.922Z,0.72
2022-12-01T10:13:43.656Z,0.78
2022-12-01T10:18:55.773Z,0.96
2022-12-01T10:24:14.108Z,1.26
2022-12-01T10:29:22.341Z,1.09
2022-12-01T10:34:26.950Z,1.26
2022-12-01T10:39:34.708Z,1.18
2022-12-01T10:44:36.970Z,1.10
2022-12-01T10:49:40.745Z,1.20
2022-12-01T10:54:44.046Z,1.45
2022-12-01T10:59:56.266Z,1.30
2022-12-01T11:05:00.379Z,1.29
2022-12-01T11:10:20.898Z,1.29
2022-12-01T11:15:26.652Z,1.24
2022-12-01T11:20:32.441Z,1.26
2022-12-01T11:25:36.674Z,1.31
2022-12-01T11:30:38.633Z,1.32
2022-12-01T11:35:47.748Z,1.32
2022-12-01T11:40:53.665Z,1.11
2022-12-01T11:45:58.703Z,1.25
2022-12-01T11:51:07.286Z,1.23
2022-12-01T11:56:23.714Z,1.22
2022-12-01T12:01:32.850Z,1.17
2022-12-01T12:06:44.605Z,0.96
2022-12-01T12:11:53.405Z,0.88
2022-12-01T12:17:12.700Z,1.03
2022-12-01T12:22:26.014Z,1.19
2022-12-01T12:27:43.539Z,0.98
2022-12-01T12:33:04.391Z,0.75
2022-12-01T12:38:22.382Z,0.87
2022-12-01T12:43:35.659Z,0.80
2022-12-01T12:49:19.381Z,0.90
2022-12-01T12:54:27.659Z,0.86
2022-12-01T12:59:38.557Z,0.79
2022-12-01T13:04:49.042Z,0.76
2022-12-01T13:09:55.532Z,0.93
2022-12-01T13:15:06.306Z,0.81
2022-12-01T13:20:15.205Z,0.92
2022-12-01T13:25:23.882Z,0.87
2022-12-01T13:30:27.491Z,0.85
2022-12-01T13:35:32.199Z,0.88
2022-12-01T13:40:34.241Z,0.65
2022-12-01T13:45:39.945Z,0.58
2022-12-01T13:51:03.594Z,0.67
2022-12-01T13:56:24.982Z,0.54
2022-12-01T14:01:45.586Z,0.57
2022-12-01T14:06:49.780Z,0.63
2022-12-01T14:11:57.024Z,0.50
2022-12-01T14:17:05.350Z,0.53
2022-12-01T14:22:27.965Z,0.27
2022-12-01T14:27:35.171Z,0.43
2022-12-01T14:32:38.452Z,0.16
2022-12-01T14:37:49.620Z,0.07
2022-12-01T14:43:14.220Z,0.16
2022-12-01T14:48:24.827Z,0.16
2022-12-01T14:53:30.649Z,0.08
2022-12-01T14:58:32.644Z,-0.17
2022-12-01T15:03:41.515Z,-0.09
2022-12-01T15:08:58.347Z,0.00
2022-12-01T15:14:22.802Z,-0.10
2022-12-01T15:19:31.633Z,-0.11
2022-12-01T15:24:34.106Z,-0.11
2022-12-01T15:29:43.945Z,-0.12
2022-12-01T15:34:50.659Z,-0.29
2022-12-01T15:40:00.852Z,-0.38
2022-12-01T15:45:18.481Z,-0.26
2022-12-01T15:50:31.102Z,-0.30
2022-12-01T15:55:34.801Z,-0.29
2022-12-01T16:00:37.302Z,-0.28
2022-12-01T16:05:44.376Z,-0.10
2022-12-01T16:11:06.315Z,-0.25
2022-12-01T16:16:27.274Z,-0.13
2022-12-01T16:21:33.650Z,-0.51
2022-12-01T16:26:35.730Z,-0.53
2022-12-01T16:31:52.682Z,-0.29
2022-12-01T16:37:01.289Z,-0.40
2022-12-01T16:42:03.706Z,-0.28
2022-12-01T16:47:13.086Z,-0.19
2022-12-01T16:52:46.337Z,-0.18
2022-12-01T16:57:39.025Z,-0.16
2022-12-01T17:02:41.060Z,-0.31
2022-12-01T17:07:44.535Z,-0.41
2022-12-01T17:12:47.455Z,-0.51
2022-12-01T17:17:49.926Z,-0.26
2022-12-01T17:22:53.220Z,-0.28
2022-12-01T17:27:55.260Z,-0.49
2022-12-01T17:32:57.912Z,-0.42
2022-12-01T17:38:01.223Z,-0.37
2022-12-01T17:43:03.291Z,-0.46
2022-12-01T17:48:05.559Z,-0.31
2022-12-01T17:53:08.926Z,-0.50
2022-12-01T17:58:10.896Z,-0.46
2022-12-01T18:03:12.901Z,-0.30
2022-12-01T18:08:16.347Z,-0.31
2022-12-01T18:13:20.306Z,-0.32
2022-12-01T18:18:23.503Z,-0.47
2022-12-01T18:23:27.097Z,-0.57
2022-12-01T18:28:29.035Z,-0.47
2022-12-01T18:33:31.508Z,-0.38
2022-12-01T18:38:34.776Z,-0.23
2022-12-01T18:43:37.271Z,-0.18
2022-12-01T18:48:44.563Z,-0.15
2022-12-01T18:53:47.911Z,-0.20
2022-12-01T18:58:54.375Z,-0.42
2022-12-01T19:03:58.665Z,-0.30
2022-12-01T19:09:04.459Z,-0.26
2022-12-01T19:14:07.170Z,-0.48
2022-12-01T19:19:09.820Z,-0.41
2022-12-01T19:24:13.194Z,-0.23
2022-12-01T19:29:15.230Z,-0.22
2022-12-01T19:34:17.365Z,-0.35
2022-12-01T19:39:20.852Z,-0.32
2022-12-01T19:44:23.311Z,-0.27
2022-12-01T19:49:25.218Z,-0.18
2022-12-01T19:54:28.800Z,-0.20
2022-12-01T19:59:30.729Z,-0.16
2022-12-01T20:04:32.937Z,-0.29
2022-12-01T20:09:36.558Z,-0.12
2022-12-01T20:14:38.486Z,-0.14
2022-12-01T20:19:41.095Z,-0.23
2022-12-01T20:24:44.500Z,-0.25
2022-12-01T20:29:46.493Z,-0.32
2022-12-01T20:34:48.793Z,-0.22
2022-12-01T20:39:52.544Z,-0.21
2022-12-01T20:44:54.482Z,-0.05
2022-12-01T20:49:58.449Z,-0.31
2022-12-01T20:55:01.840Z,-0.30
2022-12-01T21:00:04.549Z,-0.26
2022-12-01T21:05:06.701Z,-0.13
2022-12-01T21:10:11.852Z,-0.30
2022-12-01T21:15:24.699Z,-0.27
2022-12-01T21:20:30.205Z,-0.28
2022-12-01T21:25:33.558Z,-0.27
2022-12-01T21:30:35.691Z,-0.22
2022-12-01T21:35:37.648Z,-0.33
2022-12-01T21:40:43.882Z,-0.30
2022-12-01T21:45:49.816Z,-0.26
2022-12-01T21:51:00.563Z,-0.26
2022-12-01T21:56:04.346Z,-0.19
2022-12-01T22:01:15.856Z,-0.21
2022-12-01T22:06:31.076Z,-0.41
2022-12-01T22:11:34.527Z,-0.32
2022-12-01T22:16:40.608Z,-0.42
2022-12-01T22:21:45.201Z,-0.34
2022-12-01T22:26:50.721Z,-0.38
2022-12-01T22:32:04.803Z,-0.36
2022-12-01T22:37:14.515Z,-0.61
2022-12-01T22:42:30.295Z,-0.49
2022-12-01T22:47:33.887Z,-0.66
2022-12-01T22:52:35.815Z,-0.47
2022-12-01T22:57:39.112Z,-0.56
2022-12-01T23:02:41.307Z,-0.65
2022-12-01T23:07:43.710Z,-0.61
2022-12-01T23:12:48.765Z,-0.64
2022-12-01T23:17:51.454Z,-0.73
2022-12-01T23:22:54.942Z,-0.46
2022-12-01T23:28:02.729Z,-0.49
2022-12-01T23:33:19.931Z,-0.57
2022-12-01T23:38:23.840Z,-0.57
2022-12-01T23:43:29.593Z,-0.58
2022-12-01T23:48:35.969Z,-0.58
2022-12-01T23:53:40.009Z,-0.78
2022-12-01T23:58:44.173Z,-0.79
